sensor_id;sensor_type;location;lat;lon;timestamp;pressure;altitude;pressure_sealevel;temperature;humidity
929;BME280;451;47.988;7.842;2023-04-01T00:06:44;97446.66;;;8.72;100.00
929;BME280;451;47.988;7.842;2023-04-01T00:15:48;97444.13;;;8.64;100.00
929;BME280;451;47.988;7.842;2023-04-01T00:24:51;97445.78;;;8.65;100.00
929;BME280;451;47.988;7.842;2023-04-01T00:33:56;97442.88;;;8.74;100.00
929;BME280;451;47.988;7.842;2023-04-01T00:42:59;97443.88;;;8.73;100.00
929;BME280;451;47.988;7.842;2023-04-01T00:52:04;97400.81;;;8.46;100.00
929;BME280;451;47.988;7.842;2023-04-01T01:01:09;97428.72;;;8.90;100.00
929;BME280;451;47.988;7.842;2023-04-01T01:10:17;97441.72;;;8.98;100.00
929;BME280;451;47.988;7.842;2023-04-01T01:19:38;97349.09;;;8.48;100.00
929;BME280;451;47.988;7.842;2023-04-01T01:28:57;97385.56;;;8.86;100.00
929;BME280;451;47.988;7.842;2023-04-01T01:38:07;97410.63;;;8.95;100.00
929;BME280;451;47.988;7.842;2023-04-01T01:47:13;97418.88;;;9.13;100.00
929;BME280;451;47.988;7.842;2023-04-01T01:56:21;97413.41;;;9.29;100.00
929;BME280;451;47.988;7.842;2023-04-01T02:05:27;97404.84;;;9.21;100.00
929;BME280;451;47.988;7.842;2023-04-01T02:14:43;97410.91;;;9.21;100.00
929;BME280;451;47.988;7.842;2023-04-01T02:23:49;97407.03;;;9.17;100.00
929;BME280;451;47.988;7.842;2023-04-01T02:32:55;97416.13;;;9.00;100.00
929;BME280;451;47.988;7.842;2023-04-01T02:41:59;97397.88;;;8.71;100.00
929;BME280;451;47.988;7.842;2023-04-01T02:51:04;97421.47;;;8.71;100.00
929;BME280;451;47.988;7.842;2023-04-01T03:00:08;97430.94;;;8.72;100.00
929;BME280;451;47.988;7.842;2023-04-01T03:09:14;97428.84;;;8.82;100.00
929;BME280;451;47.988;7.842;2023-04-01T03:18:17;97414.59;;;8.70;100.00
929;BME280;451;47.988;7.842;2023-04-01T03:27:22;97394.47;;;8.26;100.00
929;BME280;451;47.988;7.842;2023-04-01T03:36:26;97441.09;;;8.45;100.00
929;BME280;451;47.988;7.842;2023-04-01T03:45:31;97402.91;;;7.92;100.00
929;BME280;451;47.988;7.842;2023-04-01T03:54:34;97417.97;;;8.05;100.00
929;BME280;451;47.988;7.842;2023-04-01T04:03:38;97406.16;;;8.09;100.00
929;BME280;451;47.988;7.842;2023-04-01T04:12:42;97355.72;;;7.86;100.00
929;BME280;451;47.988;7.842;2023-04-01T04:21:48;97409.16;;;8.35;100.00
929;BME280;451;47.988;7.842;2023-04-01T04:30:52;97408.25;;;8.43;100.00
929;BME280;451;47.988;7.842;2023-04-01T04:39:57;97411.28;;;8.46;100.00
929;BME280;451;47.988;7.842;2023-04-01T04:49:00;97402.19;;;8.42;100.00
929;BME280;451;47.988;7.842;2023-04-01T04:58:04;97373.81;;;8.46;100.00
929;BME280;451;47.988;7.842;2023-04-01T05:07:09;97355.88;;;8.43;100.00
929;BME280;451;47.988;7.842;2023-04-01T05:16:15;97362.81;;;8.72;100.00
929;BME280;451;47.988;7.842;2023-04-01T05:25:18;97358.66;;;8.77;100.00
929;BME280;451;47.988;7.842;2023-04-01T05:34:23;97376.41;;;8.82;100.00
929;BME280;451;47.988;7.842;2023-04-01T05:43:26;97177.41;;;7.89;100.00
929;BME280;451;47.988;7.842;2023-04-01T05:52:33;97318.97;;;8.80;100.00
929;BME280;451;47.988;7.842;2023-04-01T06:01:36;97309.50;;;8.79;100.00
929;BME280;451;47.988;7.842;2023-04-01T06:10:51;97367.59;;;9.04;100.00
929;BME280;451;47.988;7.842;2023-04-01T06:20:03;97365.03;;;9.39;100.00
929;BME280;451;47.988;7.842;2023-04-01T06:29:42;97257.03;;;8.73;100.00
929;BME280;451;47.988;7.842;2023-04-01T06:48:48;97361.72;;;9.51;100.00
929;BME280;451;47.988;7.842;2023-04-01T06:58:19;97333.63;;;9.45;100.00
929;BME280;451;47.988;7.842;2023-04-01T07:07:33;97362.56;;;9.86;100.00
929;BME280;451;47.988;7.842;2023-04-01T07:16:44;97285.19;;;9.41;100.00
929;BME280;451;47.988;7.842;2023-04-01T07:25:55;97374.75;;;10.00;100.00
929;BME280;451;47.988;7.842;2023-04-01T07:35:17;97369.56;;;10.13;100.00
929;BME280;451;47.988;7.842;2023-04-01T07:44:32;97377.84;;;10.10;100.00
929;BME280;451;47.988;7.842;2023-04-01T07:53:45;97383.22;;;9.96;100.00
929;BME280;451;47.988;7.842;2023-04-01T08:03:07;97393.09;;;10.22;100.00
929;BME280;451;47.988;7.842;2023-04-01T08:12:27;97387.50;;;10.38;100.00
929;BME280;451;47.988;7.842;2023-04-01T08:21:58;97401.78;;;10.22;100.00
929;BME280;451;47.988;7.842;2023-04-01T08:31:09;97411.66;;;10.20;100.00
929;BME280;451;47.988;7.842;2023-04-01T08:40:29;97416.59;;;10.30;100.00
929;BME280;451;47.988;7.842;2023-04-01T08:49:55;97421.22;;;10.75;99.97
929;BME280;451;47.988;7.842;2023-04-01T08:59:39;97424.13;;;11.07;98.04
929;BME280;451;47.988;7.842;2023-04-01T09:09:44;97428.97;;;10.97;97.95
929;BME280;451;47.988;7.842;2023-04-01T09:19:15;97433.19;;;10.91;96.75
929;BME280;451;47.988;7.842;2023-04-01T09:28:28;97405.88;;;10.85;95.51
929;BME280;451;47.988;7.842;2023-04-01T09:37:51;97313.09;;;10.31;95.91
929;BME280;451;47.988;7.842;2023-04-01T09:47:09;97437.78;;;11.69;91.08
929;BME280;451;47.988;7.842;2023-04-01T09:56:40;97451.34;;;11.60;90.67
929;BME280;451;47.988;7.842;2023-04-01T10:06:36;97462.25;;;11.50;90.67
929;BME280;451;47.988;7.842;2023-04-01T10:16:06;97479.84;;;11.30;90.90
929;BME280;451;47.988;7.842;2023-04-01T10:25:27;97482.31;;;11.64;88.49
929;BME280;451;47.988;7.842;2023-04-01T10:35:20;97492.91;;;11.78;88.59
929;BME280;451;47.988;7.842;2023-04-01T10:44:46;97450.56;;;11.79;87.45
929;BME280;451;47.988;7.842;2023-04-01T10:54:13;97489.47;;;11.84;88.83
929;BME280;451;47.988;7.842;2023-04-01T11:23:53;97508.03;;;11.62;88.89
929;BME280;451;47.988;7.842;2023-04-01T11:33:03;97482.69;;;11.35;90.97
929;BME280;451;47.988;7.842;2023-04-01T11:42:19;97458.91;;;10.96;91.63
929;BME280;451;47.988;7.842;2023-04-01T11:52:17;97498.06;;;11.38;89.58
929;BME280;451;47.988;7.842;2023-04-01T12:01:30;97499.53;;;11.60;89.95
929;BME280;451;47.988;7.842;2023-04-01T12:10:44;97461.44;;;11.30;89.05
929;BME280;451;47.988;7.842;2023-04-01T12:19:54;97497.19;;;11.98;89.12
929;BME280;451;47.988;7.842;2023-04-01T12:29:19;97497.91;;;11.59;87.91
929;BME280;451;47.988;7.842;2023-04-01T12:38:31;97499.38;;;12.01;85.25
929;BME280;451;47.988;7.842;2023-04-01T12:57:36;97493.50;;;12.19;88.84
929;BME280;451;47.988;7.842;2023-04-01T13:06:51;97492.69;;;12.25;89.52
929;BME280;451;47.988;7.842;2023-04-01T13:15:58;97441.66;;;11.87;86.43
929;BME280;451;47.988;7.842;2023-04-01T13:25:10;97447.72;;;11.87;85.28
929;BME280;451;47.988;7.842;2023-04-01T13:34:30;97497.88;;;12.65;82.95
929;BME280;451;47.988;7.842;2023-04-01T13:43:41;97482.03;;;12.78;80.90
929;BME280;451;47.988;7.842;2023-04-01T13:52:56;97493.13;;;13.38;78.82
929;BME280;451;47.988;7.842;2023-04-01T14:02:18;97472.78;;;13.45;75.72
929;BME280;451;47.988;7.842;2023-04-01T14:11:33;97453.41;;;14.07;73.48
929;BME280;451;47.988;7.842;2023-04-01T14:20:46;97442.00;;;14.31;70.05
929;BME280;451;47.988;7.842;2023-04-01T14:30:10;97473.22;;;13.42;81.99
929;BME280;451;47.988;7.842;2023-04-01T14:39:33;97504.38;;;11.63;100.00
929;BME280;451;47.988;7.842;2023-04-01T14:48:51;97502.38;;;11.65;100.00
929;BME280;451;47.988;7.842;2023-04-01T14:58:09;97493.50;;;12.06;100.00
929;BME280;451;47.988;7.842;2023-04-01T15:16:49;97496.69;;;12.54;96.63
929;BME280;451;47.988;7.842;2023-04-01T15:26:13;97499.16;;;13.13;91.52
929;BME280;451;47.988;7.842;2023-04-01T15:35:36;97491.91;;;12.89;88.29
929;BME280;451;47.988;7.842;2023-04-01T15:44:58;97467.94;;;12.33;85.50
929;BME280;451;47.988;7.842;2023-04-01T15:54:23;97510.13;;;12.26;95.54
929;BME280;451;47.988;7.842;2023-04-01T16:03:37;97523.09;;;12.01;91.62
929;BME280;451;47.988;7.842;2023-04-01T16:12:52;97523.66;;;12.49;88.21
929;BME280;451;47.988;7.842;2023-04-01T16:22:03;97509.06;;;12.53;85.39
929;BME280;451;47.988;7.842;2023-04-01T16:31:13;97534.81;;;12.51;86.14
929;BME280;451;47.988;7.842;2023-04-01T16:40:31;97556.47;;;12.86;87.25
929;BME280;451;47.988;7.842;2023-04-01T16:49:42;97489.84;;;12.20;85.58
929;BME280;451;47.988;7.842;2023-04-01T16:59:01;97515.38;;;12.33;85.81
929;BME280;451;47.988;7.842;2023-04-01T17:08:09;97478.53;;;11.87;88.11
929;BME280;451;47.988;7.842;2023-04-01T17:17:23;97530.00;;;12.16;90.57
929;BME280;451;47.988;7.842;2023-04-01T17:26:37;97519.88;;;11.93;91.28
929;BME280;451;47.988;7.842;2023-04-01T17:35:53;97556.31;;;11.96;91.58
929;BME280;451;47.988;7.842;2023-04-01T17:45:05;97540.16;;;11.38;92.11
929;BME280;451;47.988;7.842;2023-04-01T17:54:21;97563.81;;;11.31;95.72
929;BME280;451;47.988;7.842;2023-04-01T18:03:44;97519.44;;;10.61;100.00
929;BME280;451;47.988;7.842;2023-04-01T18:13:24;97408.91;;;9.23;100.00
929;BME280;451;47.988;7.842;2023-04-01T18:22:36;97605.25;;;10.82;100.00
929;BME280;451;47.988;7.842;2023-04-01T18:31:46;97606.66;;;10.50;100.00
929;BME280;451;47.988;7.842;2023-04-01T18:40:57;97609.56;;;10.55;100.00
929;BME280;451;47.988;7.842;2023-04-01T18:50:14;97612.88;;;10.70;99.60
929;BME280;451;47.988;7.842;2023-04-01T18:59:25;97633.72;;;10.23;100.00
929;BME280;451;47.988;7.842;2023-04-01T19:08:34;97645.56;;;9.97;100.00
929;BME280;451;47.988;7.842;2023-04-01T19:17:47;97651.00;;;9.96;97.50
929;BME280;451;47.988;7.842;2023-04-01T19:27:00;97650.03;;;9.82;98.21
929;BME280;451;47.988;7.842;2023-04-01T19:36:11;97621.97;;;9.61;97.61
929;BME280;451;47.988;7.842;2023-04-01T19:45:30;97647.75;;;9.58;98.00
929;BME280;451;47.988;7.842;2023-04-01T19:54:38;97646.03;;;9.65;95.04
929;BME280;451;47.988;7.842;2023-04-01T20:03:49;97643.06;;;9.39;94.06
929;BME280;451;47.988;7.842;2023-04-01T20:12:57;97692.53;;;9.56;92.99
929;BME280;451;47.988;7.842;2023-04-01T20:22:15;97690.00;;;9.63;92.96
929;BME280;451;47.988;7.842;2023-04-01T20:31:27;97699.88;;;9.61;92.92
929;BME280;451;47.988;7.842;2023-04-01T20:40:37;97691.53;;;9.72;90.90
929;BME280;451;47.988;7.842;2023-04-01T20:49:47;97717.97;;;10.06;92.03
929;BME280;451;47.988;7.842;2023-04-01T20:59:07;97722.03;;;10.24;92.22
929;BME280;451;47.988;7.842;2023-04-01T21:08:19;97680.91;;;10.16;92.10
929;BME280;451;47.988;7.842;2023-04-01T21:17:38;97692.69;;;10.20;93.31
929;BME280;451;47.988;7.842;2023-04-01T21:26:52;97750.72;;;10.61;91.60
929;BME280;451;47.988;7.842;2023-04-01T21:36:11;97731.19;;;10.49;92.52
929;BME280;451;47.988;7.842;2023-04-01T21:45:27;97771.47;;;10.35;93.09
929;BME280;451;47.988;7.842;2023-04-01T21:55:17;97773.19;;;10.28;93.81
929;BME280;451;47.988;7.842;2023-04-01T22:04:36;97778.66;;;10.11;96.41
929;BME280;451;47.988;7.842;2023-04-01T22:13:49;97782.00;;;10.05;98.25
929;BME280;451;47.988;7.842;2023-04-01T22:23:01;97779.25;;;10.13;97.80
929;BME280;451;47.988;7.842;2023-04-01T22:32:13;97786.16;;;10.00;99.35
929;BME280;451;47.988;7.842;2023-04-01T22:41:25;97773.88;;;9.71;100.00
929;BME280;451;47.988;7.842;2023-04-01T22:50:35;97751.00;;;9.80;99.38
929;BME280;451;47.988;7.842;2023-04-01T22:59:45;97775.44;;;9.80;100.00
929;BME280;451;47.988;7.842;2023-04-01T23:09:05;97773.25;;;9.69;100.00
929;BME280;451;47.988;7.842;2023-04-01T23:18:19;97770.00;;;9.52;100.00
929;BME280;451;47.988;7.842;2023-04-01T23:27:29;97789.28;;;9.74;100.00
929;BME280;451;47.988;7.842;2023-04-01T23:36:38;97801.84;;;10.23;100.00
929;BME280;451;47.988;7.842;2023-04-01T23:45:44;97801.72;;;10.01;100.00
929;BME280;451;47.988;7.842;2023-04-01T23:54:49;97789.91;;;9.61;100.00
